Time;durP1;ratioP1;P1;durP2;ratioP2;P2;SDS_P1;SDS_P2;PMS_P1;PMS_P2;Temp;Humidity;BMP_temperature;BMP_pressure;BME280_temperature;BME280_humidity;BME280_pressure;Samples;Min_cycle;Max_cycle;Signal;HPM_P1;HPM_P2
2022/11/06 00:01:25;;;;;;;19.02;8.57;;;;;;;10.30;79.72;99353.00;5033003;28;20096;-51
2022/11/06 00:03:52;;;;;;;26.80;8.30;;;;;;;10.23;79.42;99344.47;5012409;28;20057;-51
2022/11/06 00:09:08;;;;;;;21.33;8.15;;;;;;;10.09;79.75;99333.41;5015178;28;20068;-52
2022/11/06 00:11:35;;;;;;;19.15;6.95;;;;;;;10.02;79.85;99328.34;5021715;28;20180;-52
2022/11/06 00:14:02;;;;;;;22.10;6.85;;;;;;;9.98;79.82;99330.97;5019433;28;20080;-53
2022/11/06 00:16:29;;;;;;;22.50;6.82;;;;;;;9.92;79.27;99325.88;5016759;28;20060;-53
2022/11/06 00:18:59;;;;;;;20.20;6.68;;;;;;;9.86;79.03;99326.81;5021319;28;20049;-54
2022/11/06 00:21:28;;;;;;;21.30;6.00;;;;;;;9.79;79.21;99314.81;5019577;28;20129;-53
2022/11/06 00:23:57;;;;;;;18.02;6.00;;;;;;;9.73;79.47;99316.56;5014796;28;20171;-51
2022/11/06 00:26:26;;;;;;;13.98;5.65;;;;;;;9.67;78.85;99316.66;5015837;28;20061;-50
2022/11/06 00:28:53;;;;;;;21.30;5.95;;;;;;;9.61;78.94;99316.72;5014159;28;20103;-52
2022/11/06 00:31:23;;;;;;;25.63;5.47;;;;;;;9.56;79.33;99315.91;5013894;28;20051;-51
2022/11/06 00:33:51;;;;;;;18.48;5.82;;;;;;;9.48;79.26;99319.44;5018772;28;20529;-52
2022/11/06 00:36:20;;;;;;;18.67;5.35;;;;;;;9.44;79.05;99320.34;5032673;28;20525;-52
2022/11/06 00:38:51;;;;;;;19.15;5.07;;;;;;;9.40;79.02;99323.81;5033191;28;20128;-51
2022/11/06 00:41:18;;;;;;;13.68;3.95;;;;;;;9.34;79.30;99313.53;5014150;28;20108;-53
2022/11/06 00:43:55;;;;;;;24.02;4.18;;;;;;;9.30;78.68;99311.84;5014376;28;20046;-50
2022/11/06 00:46:22;;;;;;;17.15;3.95;;;;;;;9.29;78.90;99310.16;5000651;28;20045;-53
2022/11/06 00:48:49;;;;;;;19.95;4.00;;;;;;;9.25;79.53;99307.59;5011768;28;20089;-52
2022/11/06 00:51:21;;;;;;;12.48;3.20;;;;;;;9.23;79.34;99300.72;5014997;28;20147;-51
2022/11/06 00:53:53;;;;;;;16.92;3.55;;;;;;;9.18;79.19;99303.34;5013473;28;20132;-52
2022/11/06 00:56:20;;;;;;;20.23;4.75;;;;;;;9.14;79.18;99301.66;5015386;28;20772;-54
2022/11/06 00:58:47;;;;;;;35.65;10.90;;;;;;;9.11;79.05;99302.53;5017433;28;20089;-53
2022/11/06 01:01:16;;;;;;;33.55;12.38;;;;;;;9.08;78.92;99301.69;5015153;28;20144;-51
2022/11/06 01:03:45;;;;;;;26.13;7.47;;;;;;;9.04;78.73;99294.84;5014690;28;20045;-51
2022/11/06 01:06:16;;;;;;;31.08;10.63;;;;;;;9.00;79.24;99294.03;5014413;28;20092;-50
2022/11/06 01:08:44;;;;;;;44.67;14.60;;;;;;;8.95;78.33;99288.06;5012713;28;20555;-52
2022/11/06 01:13:50;;;;;;;43.67;13.88;;;;;;;8.87;79.01;99286.38;5044323;28;20887;-51
2022/11/06 01:16:18;;;;;;;23.15;6.68;;;;;;;8.82;78.66;99279.56;5009455;28;20056;-51
2022/11/06 01:18:46;;;;;;;26.77;6.05;;;;;;;8.78;78.48;99283.03;5010634;28;20072;-51
2022/11/06 01:21:17;;;;;;;19.90;5.93;;;;;;;8.74;79.00;99277.88;5014486;28;20042;-53
2022/11/06 01:23:46;;;;;;;22.92;4.00;;;;;;;8.71;78.89;99277.03;5011031;28;20051;-53
2022/11/06 01:26:14;;;;;;;23.83;3.65;;;;;;;8.68;78.57;99277.91;5012136;28;20049;-51
2022/11/06 01:29:03;;;;;;;13.82;2.95;;;;;;;8.65;78.78;99282.25;5012395;28;20151;-53
2022/11/06 01:31:33;;;;;;;17.33;3.85;;;;;;;8.60;78.85;99278.00;5010916;28;20049;-52
2022/11/06 01:34:01;;;;;;;;;;;;;;;8.42;78.81;99271.19;5010625;28;20051;-49
2022/11/06 01:36:30;;;;;;;14.70;2.72;;;;;;;8.46;79.15;99267.72;5020011;28;19929;-51
2022/11/06 01:39:03;;;;;;;21.90;4.05;;;;;;;8.47;79.10;99263.41;5012458;28;20689;-51
2022/11/06 01:41:34;;;;;;;13.35;2.75;;;;;;;8.46;79.00;99256.53;5005960;28;20100;-52
2022/11/06 01:46:40;;;;;;;25.25;8.55;;;;;;;8.43;79.04;99257.41;5040099;28;20434;-52
2022/11/06 01:49:16;;;;;;;38.13;14.73;;;;;;;8.40;78.13;99251.41;4998418;28;20054;-50
2022/11/06 01:51:51;;;;;;;39.58;10.88;;;;;;;8.35;78.84;99244.56;4998698;28;20452;-52
2022/11/06 01:54:20;;;;;;;53.67;9.82;;;;;;;8.33;78.24;99245.44;5001057;28;20220;-51
2022/11/06 01:56:50;;;;;;;46.95;8.35;;;;;;;8.30;79.02;99248.03;5003862;28;20046;-49
2022/11/06 01:59:20;;;;;;;22.98;8.45;;;;;;;8.26;78.06;99248.91;5001785;28;20112;-53
2022/11/06 02:01:48;;;;;;;28.20;9.88;;;;;;;8.23;78.27;99240.34;4998010;28;20093;-54
2022/11/06 02:06:52;;;;;;;29.77;9.52;;;;;;;8.19;78.76;99243.81;4994464;27;20450;-52
2022/11/06 02:09:19;;;;;;;30.08;9.32;;;;;;;8.16;77.84;99238.66;4985136;28;21749;-55
2022/11/06 02:11:51;;;;;;;119.35;17.75;;;;;;;8.13;78.65;99232.66;4989713;28;20055;-52
2022/11/06 02:17:08;;;;;;;37.92;12.57;;;;;;;8.00;78.27;99221.56;5080389;27;20388;-52
2022/11/06 02:20:00;;;;;;;22.25;5.22;;;;;;;7.94;78.93;99215.56;5039195;28;20132;-52
2022/11/06 02:23:07;;;;;;;17.23;5.35;;;;;;;7.92;78.25;99204.41;5031031;28;20611;-52
2022/11/06 02:26:02;;;;;;;16.58;3.88;;;;;;;7.92;78.98;99208.69;5018250;28;20055;-50
2022/11/06 02:28:35;;;;;;;23.63;3.47;;;;;;;7.90;78.62;99198.41;5032564;28;20049;-52
2022/11/06 02:31:08;;;;;;;16.60;3.58;;;;;;;7.90;79.35;99194.97;5053853;28;20084;-51
2022/11/06 02:33:41;;;;;;;24.63;3.35;;;;;;;7.89;79.23;99188.09;5039028;28;20634;-49
2022/11/06 02:36:13;;;;;;;13.63;3.35;;;;;;;7.88;78.97;99181.22;5038757;28;20135;-51
2022/11/06 02:38:44;;;;;;;22.05;3.60;;;;;;;7.87;78.53;99172.63;5038916;28;20065;-51
2022/11/06 02:41:18;;;;;;;14.00;3.25;;;;;;;7.86;78.25;99159.78;5033163;28;20069;-52
2022/11/06 02:43:50;;;;;;;11.82;4.10;;;;;;;7.84;78.19;99160.63;5038870;28;20127;-50
2022/11/06 02:46:23;;;;;;;11.13;3.53;;;;;;;7.80;78.23;99158.09;5038601;28;20069;-52
2022/11/06 02:48:55;;;;;;;13.77;3.67;;;;;;;7.75;78.96;99163.25;5016367;28;20049;-52
2022/11/06 02:51:27;;;;;;;11.07;5.13;;;;;;;7.70;78.58;99158.13;5020447;28;20866;-50
2022/11/06 02:53:57;;;;;;;18.05;4.82;;;;;;;7.66;78.12;99148.69;5017951;28;20050;-51
2022/11/06 02:56:28;;;;;;;15.50;3.65;;;;;;;7.64;77.79;99145.28;5017994;28;20068;-51
2022/11/06 02:59:01;;;;;;;16.52;4.50;;;;;;;7.63;79.19;99140.97;5015652;28;20127;-50
2022/11/06 03:04:15;;;;;;;48.92;5.78;;;;;;;7.54;77.85;99138.44;5054286;28;20410;-51
2022/11/06 03:06:48;;;;;;;15.98;4.40;;;;;;;7.53;78.72;99139.31;5051006;28;20074;-52
2022/11/06 03:09:19;;;;;;;18.35;4.18;;;;;;;7.50;79.32;99129.03;5054604;28;20044;-49
2022/11/06 03:11:52;;;;;;;20.50;4.07;;;;;;;7.50;79.25;99123.88;5045129;28;20176;-50
2022/11/06 03:19:59;;;;;;;26.70;5.00;;;;;;;7.98;75.81;99116.69;5053435;28;20393;-50
2022/11/06 03:22:33;;;;;;;15.15;4.97;;;;;;;7.63;78.48;99128.09;5020442;28;20357;-53
2022/11/06 03:25:21;;;;;;;14.65;4.38;;;;;;;7.49;77.55;99122.16;5020600;28;20496;-51
2022/11/06 03:28:04;;;;;;;19.25;4.47;;;;;;;7.44;78.25;99124.75;5019735;28;20795;-52
2022/11/06 03:30:37;;;;;;;11.52;2.97;;;;;;;7.43;79.21;99118.72;5022051;28;20041;-51
2022/11/06 03:35:49;;;;;;;14.18;3.90;;;;;;;7.37;78.85;99118.78;5015915;27;20415;-49
2022/11/06 03:38:21;;;;;;;16.77;3.15;;;;;;;7.35;79.07;99112.78;4976971;28;20052;-49
2022/11/06 03:40:54;;;;;;;14.15;2.65;;;;;;;7.33;77.86;99111.94;4977834;28;20153;-52
2022/11/06 03:43:25;;;;;;;10.27;3.00;;;;;;;7.29;78.46;99110.22;5006552;28;20134;-51
2022/11/06 03:45:55;;;;;;;18.70;2.67;;;;;;;7.30;77.96;99114.53;4971623;28;20054;-51
2022/11/06 03:56:30;;;;;;;15.73;6.00;;;;;;;7.10;78.51;99094.84;5023132;28;20399;-49
2022/11/06 03:59:01;;;;;;;17.38;5.82;;;;;;;7.05;77.94;99086.28;4998942;28;20056;-51
2022/11/06 04:01:34;;;;;;;10.23;5.15;;;;;;;7.02;78.98;99086.28;4996286;28;20046;-50
2022/11/06 04:04:05;;;;;;;19.67;4.28;;;;;;;7.00;78.78;99094.03;4998842;28;20081;-52
2022/11/06 04:06:41;;;;;;;14.32;4.13;;;;;;;6.99;77.96;99096.63;4997517;28;20141;-52
2022/11/06 04:14:53;;;;;;;32.05;4.70;;;;;;;6.89;78.76;99081.19;4990196;28;20384;-49
2022/11/06 04:17:22;;;;;;;23.75;5.20;;;;;;;6.88;79.52;99079.47;4975773;28;20130;-51
2022/11/06 04:19:52;;;;;;;16.05;5.25;;;;;;;6.87;79.07;99080.34;4973902;28;20081;-53
2022/11/06 04:31:01;;;;;;;38.53;8.50;;;;;;;6.90;77.63;99072.63;5020345;27;20406;-53
2022/11/06 04:33:40;;;;;;;31.58;6.05;;;;;;;6.84;77.44;99067.47;4991054;28;20144;-51
2022/11/06 04:44:23;;;;;;;17.80;4.78;;;;;;;6.86;77.32;99042.56;5087244;27;20794;-51
2022/11/06 04:46:56;;;;;;;16.33;4.80;;;;;;;6.91;79.17;99040.84;5063902;28;20047;-52
2022/11/06 04:49:23;;;;;;;16.70;5.03;;;;;;;6.96;79.33;99025.41;5058163;28;20187;-53
2022/11/06 04:51:51;;;;;;;15.18;4.38;;;;;;;7.00;78.87;99037.41;5064870;28;20486;-52
2022/11/06 04:54:18;;;;;;;17.83;4.38;;;;;;;7.05;78.56;99030.50;5059097;28;20098;-52
2022/11/06 04:56:44;;;;;;;12.35;4.25;;;;;;;7.10;78.70;99030.47;5070553;28;20041;-53
2022/11/06 04:59:15;;;;;;;18.35;4.32;;;;;;;7.13;79.15;99027.88;5054341;28;20045;-52
2022/11/06 05:01:41;;;;;;;20.60;4.38;;;;;;;7.16;77.88;99017.56;5067113;28;20461;-51
2022/11/06 05:04:10;;;;;;;22.45;4.60;;;;;;;7.20;78.76;99014.09;5051233;28;20391;-52
2022/11/06 05:06:37;;;;;;;8.95;4.15;;;;;;;7.23;78.08;99012.38;5047772;28;20063;-51
2022/11/06 05:09:03;;;;;;;13.65;5.45;;;;;;;7.24;79.10;99009.81;5066492;28;20052;-51
2022/11/06 05:11:30;;;;;;;13.35;5.00;;;;;;;7.22;77.51;99001.22;5062534;28;20052;-49
2022/11/06 05:13:57;;;;;;;11.32;4.88;;;;;;;7.20;77.82;99006.38;5063633;28;20185;-50
2022/11/06 05:16:23;;;;;;;15.48;4.28;;;;;;;7.19;78.90;99002.09;5066049;28;20084;-51
2022/11/06 05:18:50;;;;;;;14.25;3.72;;;;;;;7.18;78.42;98994.38;5058327;28;20040;-51
2022/11/06 05:24:03;;;;;;;14.65;4.15;;;;;;;7.22;78.14;98987.50;5058459;28;20052;-52
2022/11/06 05:26:30;;;;;;;15.75;4.63;;;;;;;7.23;79.48;98989.19;5054806;28;20483;-50
2022/11/06 05:28:57;;;;;;;22.05;4.55;;;;;;;7.25;78.60;98995.19;5056149;28;20145;-50
2022/11/06 05:31:24;;;;;;;20.30;4.18;;;;;;;7.25;78.65;98987.44;5053499;28;20056;-51
2022/11/06 05:33:51;;;;;;;21.38;5.05;;;;;;;7.24;78.71;98983.19;5052101;28;20506;-50
2022/11/06 05:36:18;;;;;;;11.50;4.22;;;;;;;7.22;79.50;98977.19;5057119;28;20520;-52
2022/11/06 05:38:44;;;;;;;21.65;5.25;;;;;;;7.20;78.65;98970.31;5063973;28;20048;-51
2022/11/06 05:41:11;;;;;;;21.42;4.82;;;;;;;7.19;78.32;98973.75;5066926;28;20055;-52
2022/11/06 05:43:38;;;;;;;20.13;4.15;;;;;;;7.22;79.40;98979.78;5054379;28;20541;-51
2022/11/06 05:46:04;;;;;;;19.75;4.15;;;;;;;7.22;78.55;98974.63;5055879;28;20052;-51
2022/11/06 05:48:49;;;;;;;20.55;4.18;;;;;;;7.21;78.54;98981.47;5058657;28;20052;-51
2022/11/06 05:51:16;;;;;;;19.65;3.92;;;;;;;7.20;79.41;98974.63;5061952;28;20143;-51
2022/11/06 05:53:43;;;;;;;12.50;3.70;;;;;;;7.21;79.45;98973.75;5054530;28;20072;-52
2022/11/06 05:56:09;;;;;;;15.32;3.80;;;;;;;7.23;79.72;98976.31;5051274;28;20139;-52
2022/11/06 05:58:36;;;;;;;14.80;4.03;;;;;;;7.26;78.93;98971.16;5044690;28;20500;-52
2022/11/06 06:01:02;;;;;;;26.35;4.88;;;;;;;7.27;79.57;98962.56;5038226;28;20076;-53
2022/11/06 06:03:29;;;;;;;19.48;4.80;;;;;;;7.27;79.71;98957.41;5038895;28;20132;-53
2022/11/06 06:05:56;;;;;;;11.02;3.50;;;;;;;7.28;79.20;98956.53;5043864;28;20069;-49
2022/11/06 06:08:22;;;;;;;19.55;3.55;;;;;;;7.30;79.93;98957.38;5046595;28;20115;-52
2022/11/06 06:10:49;;;;;;;19.17;3.80;;;;;;;7.32;80.85;98955.66;5045558;28;20083;-50
2022/11/06 06:13:16;;;;;;;17.95;3.78;;;;;;;7.33;79.93;98957.38;5042287;28;20037;-49
2022/11/06 06:15:43;;;;;;;23.20;3.63;;;;;;;7.34;80.43;98953.94;5051299;28;20508;-52
2022/11/06 06:18:10;;;;;;;17.00;3.55;;;;;;;7.37;80.28;98943.59;5043491;28;20274;-52
2022/11/06 06:20:38;;;;;;;18.70;4.10;;;;;;;7.39;79.91;98936.72;5041818;28;20057;-52
2022/11/06 06:23:05;;;;;;;20.45;3.38;;;;;;;7.41;80.77;98919.53;5040024;28;20144;-52
2022/11/06 06:25:35;;;;;;;18.02;3.80;;;;;;;7.44;79.89;98924.63;5049493;28;20083;-51
2022/11/06 06:28:01;;;;;;;18.63;4.05;;;;;;;7.48;79.65;98911.72;5045421;28;20072;-51
2022/11/06 06:30:28;;;;;;;16.02;3.85;;;;;;;7.50;79.68;98907.44;5046940;28;20051;-52
2022/11/06 06:32:54;;;;;;;14.95;4.18;;;;;;;7.52;80.77;98901.41;5044233;28;20064;-51
2022/11/06 06:35:21;;;;;;;17.15;4.20;;;;;;;7.52;80.08;98895.38;5046701;28;20060;-48
2022/11/06 06:37:51;;;;;;;24.45;4.90;;;;;;;7.55;79.64;98892.78;5051101;28;20152;-53
2022/11/06 06:40:17;;;;;;;14.60;3.42;;;;;;;7.55;79.84;98891.06;5042715;28;20068;-51
2022/11/06 06:42:44;;;;;;;20.25;4.32;;;;;;;7.55;79.96;98882.47;5049389;28;20059;-53
2022/11/06 06:45:11;;;;;;;12.63;3.88;;;;;;;7.54;80.30;98886.75;5043229;28;20059;-53
2022/11/06 06:47:38;;;;;;;23.38;4.63;;;;;;;7.53;81.07;98886.81;5049917;28;20042;-51
2022/11/06 06:50:05;;;;;;;24.77;5.47;;;;;;;7.53;79.90;98886.81;5045960;28;20072;-50
2022/11/06 06:52:31;;;;;;;29.90;5.85;;;;;;;7.52;79.86;98879.91;5045960;28;20076;-51
2022/11/06 06:54:58;;;;;;;15.15;4.70;;;;;;;7.52;80.12;98878.19;5056223;28;20159;-52
2022/11/06 06:57:25;;;;;;;21.08;4.00;;;;;;;7.52;80.95;98872.19;5045428;28;20420;-51
2022/11/06 06:59:51;;;;;;;19.48;4.72;;;;;;;7.53;80.28;98874.75;5043612;28;20133;-50
2022/11/06 07:02:18;;;;;;;21.65;4.60;;;;;;;7.56;80.88;98881.59;5047973;28;20894;-54
2022/11/06 07:04:44;;;;;;;14.32;4.03;;;;;;;7.58;80.96;98877.28;5044276;28;20506;-51
2022/11/06 07:07:11;;;;;;;20.65;7.65;;;;;;;7.58;80.96;98879.88;5039621;28;20123;-50
2022/11/06 07:09:38;;;;;;;33.45;11.05;;;;;;;7.58;80.30;98885.88;5046654;28;20137;-50
2022/11/06 07:12:04;;;;;;;46.85;18.33;;;;;;;7.59;80.04;98879.00;5050200;28;20140;-49
2022/11/06 07:14:31;;;;;;;41.50;13.90;;;;;;;7.59;80.40;98877.28;5046763;28;20524;-54
2022/11/06 07:16:57;;;;;;;19.98;6.57;;;;;;;7.62;81.63;98885.84;5044571;28;20055;-51
2022/11/06 07:19:24;;;;;;;16.88;5.15;;;;;;;7.62;80.44;98876.41;5044969;28;20055;-50
2022/11/06 07:21:51;;;;;;;18.95;4.75;;;;;;;7.63;80.28;98874.69;5038786;28;20076;-51
2022/11/06 07:24:19;;;;;;;24.95;4.47;;;;;;;7.63;80.44;98883.25;5045210;28;20068;-50
2022/11/06 07:26:46;;;;;;;25.58;5.43;;;;;;;7.64;80.52;98882.41;5044355;28;20128;-52
2022/11/06 07:29:12;;;;;;;22.75;5.30;;;;;;;7.67;81.15;98877.19;5047725;28;20049;-51
2022/11/06 07:31:39;;;;;;;13.05;4.82;;;;;;;7.70;81.76;98879.75;5051444;28;20570;-51
2022/11/06 07:34:05;;;;;;;18.38;4.95;;;;;;;7.76;81.79;98873.69;5042781;28;20136;-55
2022/11/06 07:36:34;;;;;;;25.52;5.75;;;;;;;7.82;80.97;98871.06;5045637;28;20138;-53
2022/11/06 07:39:01;;;;;;;29.13;6.20;;;;;;;7.88;81.21;98866.69;5026046;28;20064;-53
2022/11/06 07:41:28;;;;;;;27.98;6.18;;;;;;;7.93;81.95;98870.06;5051738;28;20051;-52
2022/11/06 07:43:54;;;;;;;19.92;6.28;;;;;;;7.98;81.97;98863.97;5039723;28;20571;-55
2022/11/06 07:46:21;;;;;;;39.15;6.90;;;;;;;8.03;81.75;98855.34;5048551;28;20500;-48
2022/11/06 07:48:48;;;;;;;37.22;7.05;;;;;;;8.10;82.46;98841.50;5047161;28;20159;-49
2022/11/06 07:51:15;;;;;;;31.60;8.25;;;;;;;8.15;81.76;98839.75;5044448;28;20140;-52
2022/11/06 07:53:41;;;;;;;33.55;7.10;;;;;;;8.20;82.13;98837.94;5043409;28;20047;-52
2022/11/06 07:56:08;;;;;;;23.58;6.80;;;;;;;8.26;81.71;98841.31;5037397;28;20064;-51
2022/11/06 07:58:35;;;;;;;31.98;7.10;;;;;;;8.30;81.73;98858.47;5043989;28;20048;-52
2022/11/06 08:01:02;;;;;;;32.17;6.47;;;;;;;8.35;82.53;98867.00;5043966;28;20675;-54
2022/11/06 08:03:29;;;;;;;36.40;7.13;;;;;;;8.39;82.21;98863.53;5041826;28;20131;-52
2022/11/06 08:05:58;;;;;;;39.35;7.10;;;;;;;8.43;81.87;98859.16;5039619;28;20049;-54
2022/11/06 08:08:26;;;;;;;38.17;6.47;;;;;;;8.46;82.42;98849.66;5044289;28;20052;-52
2022/11/06 08:10:53;;;;;;;42.00;7.13;;;;;;;8.53;81.98;98852.16;5047093;28;20795;-51
2022/11/06 08:13:20;;;;;;;40.65;6.30;;;;;;;8.58;81.75;98850.41;5044430;28;20045;-51
2022/11/06 08:15:47;;;;;;;52.97;6.88;;;;;;;8.61;82.78;98840.00;5043245;28;20140;-50
2022/11/06 08:18:13;;;;;;;26.02;5.88;;;;;;;8.64;82.47;98836.56;5038771;28;20122;-53
2022/11/06 08:20:40;;;;;;;39.03;6.45;;;;;;;8.68;82.42;98828.72;5043155;28;20047;-49
2022/11/06 08:23:09;;;;;;;43.78;6.28;;;;;;;8.74;82.53;98825.22;5040219;28;20313;-51
2022/11/06 08:25:37;;;;;;;41.75;6.40;;;;;;;8.77;82.80;98812.25;5037633;28;20450;-53
2022/11/06 08:28:03;;;;;;;46.08;6.97;;;;;;;8.82;83.10;98822.53;5041749;28;20159;-52
2022/11/06 08:30:31;;;;;;;41.00;6.32;;;;;;;8.85;82.40;98812.16;5039957;28;20048;-54
2022/11/06 08:33:02;;;;;;;39.42;6.93;;;;;;;8.90;82.61;98801.72;5040093;28;20147;-53
2022/11/06 08:35:29;;;;;;;51.05;6.47;;;;;;;8.93;82.68;98794.81;5045962;28;20048;-52
2022/11/06 08:37:56;;;;;;;35.65;6.65;;;;;;;8.97;82.74;98796.47;5041522;28;20132;-51
2022/11/06 08:40:23;;;;;;;36.17;7.05;;;;;;;9.02;83.02;98788.63;5048086;28;20152;-52
2022/11/06 08:42:59;;;;;;;38.50;6.38;;;;;;;9.06;83.32;98789.44;5041521;28;20049;-52
2022/11/06 08:45:27;;;;;;;35.78;6.93;;;;;;;9.09;83.35;98786.81;5032339;28;20063;-52
2022/11/06 08:47:53;;;;;;;40.70;6.95;;;;;;;9.14;83.04;98774.66;5046644;28;20080;-53
2022/11/06 08:50:20;;;;;;;23.48;6.82;;;;;;;9.15;82.43;98771.19;5050511;28;20181;-51
2022/11/06 08:52:46;;;;;;;24.48;7.03;;;;;;;9.17;82.96;98759.09;5038271;28;20056;-51
2022/11/06 08:55:13;;;;;;;25.42;5.55;;;;;;;9.21;83.35;98770.22;5045550;28;20072;-50
2022/11/06 08:57:40;;;;;;;26.95;6.35;;;;;;;9.22;83.46;98761.63;5045615;28;20135;-53
2022/11/06 09:00:07;;;;;;;23.67;5.10;;;;;;;9.22;83.38;98756.44;5040067;28;21199;-52
2022/11/06 09:02:33;;;;;;;21.75;5.50;;;;;;;9.24;83.36;98752.09;5044889;28;20560;-51
2022/11/06 09:05:00;;;;;;;26.48;5.60;;;;;;;9.29;83.35;98746.84;5040377;28;20685;-52
2022/11/06 09:07:26;;;;;;;20.58;4.57;;;;;;;9.32;84.26;98746.78;5044155;28;20048;-51
2022/11/06 09:09:53;;;;;;;21.95;5.47;;;;;;;9.37;83.57;98756.16;5046150;28;20059;-52
2022/11/06 09:12:19;;;;;;;22.73;4.38;;;;;;;9.42;83.84;98758.63;5040116;28;20063;-49
2022/11/06 09:14:46;;;;;;;20.10;4.93;;;;;;;9.47;83.68;98750.81;5046195;28;21353;-52
2022/11/06 09:17:13;;;;;;;17.83;4.43;;;;;;;9.51;83.25;98748.16;5043161;28;21066;-50
2022/11/06 09:19:39;;;;;;;29.92;5.05;;;;;;;9.56;83.62;98749.78;5043619;28;20123;-52
2022/11/06 09:22:07;;;;;;;24.20;4.80;;;;;;;9.61;83.63;98759.16;5044331;28;20048;-52
2022/11/06 09:24:33;;;;;;;27.20;5.07;;;;;;;9.66;83.88;98766.78;5051306;28;20032;-50
2022/11/06 09:27:20;;;;;;;26.15;5.38;;;;;;;9.70;83.81;98778.81;5045729;28;20130;-49
2022/11/06 09:29:47;;;;;;;25.15;5.43;;;;;;;9.74;83.05;98779.59;5049800;28;20058;-53
2022/11/06 09:32:14;;;;;;;28.60;5.95;;;;;;;9.77;83.73;98770.03;5046922;28;20178;-54
2022/11/06 09:34:41;;;;;;;32.30;6.88;;;;;;;9.83;83.44;98773.38;5051222;28;20123;-51
2022/11/06 09:37:07;;;;;;;22.42;5.90;;;;;;;9.88;83.10;98789.66;5048031;28;20706;-52
2022/11/06 09:39:34;;;;;;;25.63;5.78;;;;;;;9.92;83.65;98783.53;5048119;28;20058;-53
2022/11/06 09:42:12;;;;;;;31.35;5.95;;;;;;;9.96;83.69;98780.00;5046358;28;20081;-51
2022/11/06 09:47:36;;;;;;;30.52;6.45;;;;;;;10.07;83.56;98786.69;5090071;27;20382;-52
2022/11/06 09:50:11;;;;;;;27.48;5.53;;;;;;;10.11;83.11;98783.16;5078488;28;20075;-54
2022/11/06 09:52:45;;;;;;;39.15;6.00;;;;;;;10.13;83.35;98776.19;5093157;28;20513;-53
2022/11/06 09:55:20;;;;;;;37.83;6.50;;;;;;;10.17;83.68;98757.16;5097527;28;20044;-51
2022/11/06 09:58:25;;;;;;;30.13;6.22;;;;;;;10.19;83.25;98757.09;5101184;28;20052;-52
2022/11/06 10:00:53;;;;;;;30.15;5.38;;;;;;;10.27;83.04;98763.00;5092919;28;20514;-53
2022/11/06 10:03:44;;;;;;;30.77;6.20;;;;;;;10.29;83.84;98756.88;5089926;27;20068;-50
2022/11/06 10:06:11;;;;;;;31.38;7.43;;;;;;;10.37;83.51;98753.28;5096026;28;20131;-52
2022/11/06 10:08:42;;;;;;;34.08;6.97;;;;;;;10.42;83.55;98761.78;5096230;27;20127;-54
2022/11/06 10:19:15;;;;;;;28.88;7.30;;;;;;;10.56;82.66;98752.84;5052920;27;20404;-51
2022/11/06 10:24:23;;;;;;;26.27;5.68;;;;;;;10.63;83.78;98744.06;5029674;28;20403;-46
2022/11/06 10:26:54;;;;;;;27.48;5.65;;;;;;;10.64;83.12;98748.38;5020906;28;20136;-60
2022/11/06 10:37:53;;;;;;;22.58;5.03;;;;;;;10.74;83.33;98689.44;5056525;28;21179;-52
2022/11/06 10:40:25;;;;;;;23.00;5.10;;;;;;;10.76;83.97;98693.69;4998379;28;20081;-52
2022/11/06 10:46:03;;;;;;;37.20;8.63;;;;;;;11.09;82.61;98686.81;5017373;27;20412;-53
2022/11/06 10:48:33;;;;;;;21.20;5.72;;;;;;;10.96;84.68;98679.38;5013045;28;20123;-54
2022/11/06 10:59:33;;;;;;;17.02;4.60;;;;;;;11.04;83.45;98651.50;5017595;28;20407;-52
2022/11/06 11:02:00;;;;;;;19.05;6.25;;;;;;;11.10;83.87;98649.63;4996654;28;20409;-52
2022/11/06 11:04:31;;;;;;;15.52;4.40;;;;;;;11.15;84.64;98642.59;4994894;28;20062;-50
2022/11/06 11:07:12;;;;;;;24.70;4.63;;;;;;;11.22;83.54;98638.94;4999188;28;20133;-53
2022/11/06 11:09:48;;;;;;;18.80;4.63;;;;;;;11.29;83.98;98639.63;4997157;28;20080;-50
2022/11/06 11:12:21;;;;;;;11.27;4.05;;;;;;;11.35;83.37;98633.41;4994979;28;20077;-50
2022/11/06 11:15:11;;;;;;;19.75;4.38;;;;;;;11.39;83.64;98635.84;5006810;28;20052;-51
2022/11/06 11:17:39;;;;;;;16.98;4.18;;;;;;;11.49;83.58;98641.66;5032836;22;20129;-50
2022/11/06 11:20:28;;;;;;;14.55;4.68;;;;;;;11.54;84.05;98639.75;4969405;28;20058;-51
2022/11/06 11:23:17;;;;;;;26.58;4.82;;;;;;;11.62;83.63;98636.91;4989849;28;20049;-53
2022/11/06 11:25:50;;;;;;;19.95;4.60;;;;;;;11.73;83.46;98636.63;4973922;28;20050;-51
2022/11/06 11:33:34;;;;;;;19.15;4.10;;;;;;;11.96;83.83;98627.28;5025462;27;20410;-52
2022/11/06 11:36:05;;;;;;;11.27;3.85;;;;;;;12.03;84.09;98626.16;5016197;28;20103;-52
2022/11/06 11:38:36;;;;;;;14.10;4.00;;;;;;;12.07;83.26;98633.00;5016895;28;20049;-51
2022/11/06 11:44:02;;;;;;;16.75;4.20;;;;;;;12.16;83.05;98625.84;5078493;27;20389;-48
2022/11/06 11:46:30;;;;;;;14.10;4.22;;;;;;;12.15;82.98;98622.38;5043585;28;20147;-48
2022/11/06 11:48:57;;;;;;;12.55;4.03;;;;;;;12.20;82.74;98611.84;5057610;28;20078;-45
2022/11/06 11:59:30;;;;;;;15.43;5.43;;;;;;;12.55;82.96;98573.47;5031518;27;20752;-49
2022/11/06 12:02:01;;;;;;;;;;;;;;;12.29;82.81;98567.41;4981077;28;20053;-49
2022/11/06 12:04:35;;;;;;;17.45;5.55;;;;;;;12.39;83.74;98554.13;4984182;28;19925;-48
2022/11/06 12:07:06;;;;;;;9.27;4.45;;;;;;;12.41;82.84;98547.13;4984948;28;20141;-48
2022/11/06 12:09:41;;;;;;;12.90;4.13;;;;;;;12.45;83.43;98543.50;4986346;28;20078;-47
2022/11/06 12:12:20;;;;;;;10.45;4.55;;;;;;;12.47;82.45;98529.56;4992370;28;20073;-50
2022/11/06 12:15:01;;;;;;;12.18;4.93;;;;;;;12.53;82.68;98520.72;4978570;28;20097;-47
2022/11/06 12:17:30;;;;;;;13.27;4.85;;;;;;;12.58;82.07;98513.63;4996445;28;20066;-51
2022/11/06 12:20:00;;;;;;;10.48;4.10;;;;;;;12.59;83.14;98510.13;4987824;28;20141;-50
2022/11/06 12:22:34;;;;;;;;;;;;;;;12.49;82.83;98505.31;5005881;28;20156;-50
2022/11/06 12:25:30;;;;;;;9.10;4.00;;;;;;;12.59;81.85;98501.47;5005598;28;19921;-47
2022/11/06 12:28:00;;;;;;;14.88;4.47;;;;;;;12.67;82.93;98483.03;5029568;28;20133;-48
2022/11/06 12:30:31;;;;;;;15.95;4.15;;;;;;;12.71;82.43;98474.22;5001233;28;20121;-48
2022/11/06 12:38:40;;;;;;;12.35;3.20;;;;;;;12.99;83.10;98460.19;5085328;27;20399;-48
2022/11/06 12:41:37;;;;;;;18.75;3.70;;;;;;;13.19;82.28;98471.56;5068342;28;20048;-49
2022/11/06 12:44:09;;;;;;;11.57;3.15;;;;;;;13.37;83.07;98464.78;5064770;28;20073;-50
2022/11/06 12:46:47;;;;;;;10.60;2.72;;;;;;;13.51;82.88;98461.66;5040933;28;20045;-52
2022/11/06 13:00:17;;;;;;;5.07;2.40;;;;;;;13.75;80.81;98427.78;5029197;28;20395;-47
2022/11/06 13:03:23;;;;;;;8.55;3.92;;;;;;;13.64;80.27;98424.75;5002679;28;20445;-46
2022/11/06 13:11:35;;;;;;;8.45;3.40;;;;;;;13.48;79.93;98426.22;5032101;28;20426;-47
2022/11/06 13:16:49;;;;;;;5.90;2.05;;;;;;;13.49;80.01;98421.88;5077078;27;20401;-47
2022/11/06 13:27:35;;;;;;;7.75;1.30;;;;;;;13.40;79.68;98412.66;5044181;27;20389;-46
2022/11/06 13:30:13;;;;;;;7.38;1.63;;;;;;;13.37;79.55;98402.38;5037705;28;20446;-48
2022/11/06 13:32:42;;;;;;;7.15;1.05;;;;;;;13.36;80.10;98395.50;5042607;28;20152;-47
2022/11/06 13:35:15;;;;;;;6.50;1.95;;;;;;;13.32;79.30;98389.59;5038149;28;20136;-50
2022/11/06 13:37:46;;;;;;;11.65;1.33;;;;;;;13.28;80.25;98388.03;5037939;28;20130;-48
2022/11/06 13:40:36;;;;;;;11.55;1.70;;;;;;;13.21;79.87;98381.38;5037428;28;20542;-50
2022/11/06 13:43:24;;;;;;;10.23;1.85;;;;;;;13.13;79.44;98378.25;5035814;28;20136;-50
2022/11/06 13:54:17;;;;;;;9.90;1.83;;;;;;;12.97;79.76;98365.84;5003725;28;20400;-47
2022/11/06 14:02:28;;;;;;;8.90;3.67;;;;;;;12.84;79.32;98400.09;5067398;27;20394;-53
2022/11/06 14:07:48;;;;;;;9.20;1.45;;;;;;;12.79;80.40;98396.84;5034725;27;20951;-55
2022/11/06 14:10:19;;;;;;;6.40;1.92;;;;;;;12.71;78.99;98397.13;5000033;28;20460;-53
2022/11/06 14:12:48;;;;;;;6.45;1.05;;;;;;;12.66;78.83;98401.66;4993641;28;20073;-54
2022/11/06 14:15:27;;;;;;;10.52;2.20;;;;;;;12.60;79.22;98397.53;4990382;28;20046;-52
2022/11/06 14:17:56;;;;;;;4.97;1.90;;;;;;;12.56;79.07;98382.97;4997450;28;20044;-51
2022/11/06 14:26:11;;;;;;;6.65;1.60;;;;;;;12.39;79.09;98351.63;5063136;27;20742;-51
2022/11/06 14:28:40;;;;;;;3.95;1.45;;;;;;;12.36;79.96;98341.34;5026276;28;20331;-54
2022/11/06 14:31:08;;;;;;;5.32;1.63;;;;;;;12.31;78.64;98339.78;5076189;28;20053;-53